RoSS Sea — WDE3122 — position and weather

sailwx.info

Track history (hours):
 
Tides and Currents Weather Stations Pressure Air Temp Water Temp Dewpoint Dewpoint Depression Visibility Wind Speed Wind Dir Waves Ship Positions

RoSS Sea

Owner: Kirby Inland Marine, LP, Houston, TX. More information available from US FCC via Universal Licensing System and Coast Guard Vessel Documentation Center.

Last reported at 2018-Jul-20 11:00 UTC. Time now 2018-Jul-21 19:35 UTC.
Position N 38°13' W 076°18'.

Length 30 m; draft 3.8 m.

Type: Tow > 200 m length. MMSI: 367334360.

Date/timePositionNaut miles runAvg speedWind from/ knotsBaromVisibWave heightAir tempDewpointWater temp
2018-Jul-20 11:00N 38°13' W 076°18'4 7.4
2018-Jul-20 10:31N 38°17' W 076°19'2 3.8
2018-Jul-20 09:55N 38°19' W 076°20'6 6.9
2018-Jul-20 09:04N 38°25' W 076°22'3 9.2
2018-Jul-20 08:46N 38°27' W 076°23'2 9.2
2018-Jul-20 08:30N 38°29' W 076°25'18 8.7
2018-Jul-20 06:26N 38°47' W 076°27'4 8.3
2018-Jul-20 06:00N 38°51' W 076°26'4 8.1
2018-Jul-20 05:31N 38°55' W 076°24'5 7.9
2018-Jul-20 04:56N 38°59' W 076°23'8 7.6
2018-Jul-20 03:54N 39°06' W 076°19'7 7.6
2018-Jul-20 02:58N 39°13' W 076°15'11 8.3
2018-Jul-20 01:41N 39°22' W 076°08'2 9.3
2018-Jul-20 01:30N 39°23' W 076°06'5 9.3
2018-Jul-20 01:00N 39°25' W 076°01'5 9.7
2018-Jul-20 00:30N 39°29' W 075°57'5 9.5
2018-Jul-20 00:00N 39°32' W 075°52'4 8.2
2018-Jul-19 23:30N 39°32' W 075°47'5 9.4
2018-Jul-19 23:00N 39°33' W 075°41'5 9.3
2018-Jul-19 22:30N 39°34' W 075°35'3 5.4
2018-Jul-19 22:00N 39°36' W 075°34'3 6.3
2018-Jul-19 21:30N 39°39' W 075°33'3 6.8
2018-Jul-19 21:00N 39°42' W 075°31'3 6.7
2018-Jul-19 20:30N 39°45' W 075°29'3 6.5
2018-Jul-19 20:00N 39°48' W 075°26'4 7.1
2018-Jul-19 19:30N 39°50' W 075°22'4 7.1
2018-Jul-19 19:00N 39°51' W 075°18'4 8.5
2018-Jul-19 18:29N 39°52' W 075°13'4 8.3
2018-Jul-19 17:57N 39°55' W 075°08'4 8.4
2018-Jul-19 17:30N 39°58' W 075°06'3 2.5
2018-Jul-19 16:25N 40°00' W 075°04'0 0.0
2018-Jul-19 16:00N 40°00' W 075°04'0 0.0
2018-Jul-19 15:30N 40°00' W 075°04'0 0.0
2018-Jul-19 01:00N 40°00' W 075°04'0 0.0
2018-Jul-19 00:30N 40°00' W 075°04'1 1.6
2018-Jul-19 00:00N 39°59' W 075°04'2 4.8
2018-Jul-18 23:30N 39°58' W 075°07'2 4.1
2018-Jul-18 23:01N 39°57' W 075°08'3 6.8
2018-Jul-18 22:30N 39°53' W 075°08'3 7.0
2018-Jul-18 22:00N 39°52' W 075°13'3 5.9
2018-Jul-18 21:30N 39°51' W 075°16'2 4.4
2018-Jul-18 21:01N 39°51' W 075°19'4 7.6
2018-Jul-18 20:30N 39°49' W 075°23'4 8.4
2018-Jul-18 20:00N 39°47' W 075°28'4 8.5
2018-Jul-18 19:30N 39°43' W 075°30'4 8.5
2018-Jul-18 19:00N 39°39' W 075°33'4 7.4
2018-Jul-18 18:30N 39°35' W 075°34'3 6.3
2018-Jul-18 18:00N 39°33' W 075°37'5 9.4
2018-Jul-18 17:30N 39°33' W 075°43'5 9.2
2018-Jul-18 17:00N 39°32' W 075°49'4 7.6
2018-Jul-18 16:30N 39°31' W 075°53'510.3
2018-Jul-18 16:00N 39°28' W 075°59'5 9.6
2018-Jul-18 15:30N 39°24' W 076°03'510.0
2018-Jul-18 14:59N 39°22' W 076°09'24 8.9
2018-Jul-18 12:16N 38°60' W 076°23'3 9.3
2018-Jul-18 12:00N 38°58' W 076°24'4 8.3
2018-Jul-18 11:30N 38°54' W 076°24'  
2018-Jul-15 14:47N 39°05' W 075°11'2 5.8
2018-Jul-15 14:29N 39°07' W 075°13'3 5.7
2018-Jul-15 13:59N 39°09' W 075°15'3 5.6
2018-Jul-15 13:30N 39°11' W 075°17'3 6.1
2018-Jul-15 13:00N 39°14' W 075°18'4 7.6
2018-Jul-15 12:30N 39°17' W 075°21'4 8.5
2018-Jul-15 12:00N 39°20' W 075°25'5 9.3
2018-Jul-15 11:30N 39°23' W 075°29'5 9.6
2018-Jul-15 11:00N 39°27' W 075°33'5 9.1
2018-Jul-15 10:30N 39°32' W 075°33'5 9.2
2018-Jul-15 10:00N 39°36' W 075°34'4 8.1
2018-Jul-15 09:30N 39°40' W 075°32'4 8.8
2018-Jul-15 09:00N 39°44' W 075°30'4 8.0
2018-Jul-15 08:30N 39°47' W 075°27'4 7.2
2018-Jul-15 08:00N 39°49' W 075°23'3 6.2
2018-Jul-15 07:30N 39°51' W 075°20'3 5.7
2018-Jul-15 07:00N 39°51' W 075°16'3 5.5
2018-Jul-15 06:30N 39°52' W 075°13'2 4.9
2018-Jul-15 06:01N 39°53' W 075°10'2 4.4
2018-Jul-15 05:30N 39°54' W 075°08'2 4.9
2018-Jul-15 05:00N 39°57' W 075°08'2 4.5
2018-Jul-15 04:30N 39°58' W 075°06'2 4.7
2018-Jul-15 04:00N 39°60' W 075°04'0 0.5
2018-Jul-15 03:30N 39°60' W 075°04'0 0.1
2018-Jul-15 03:00N 40°00' W 075°04'0 0.0
2018-Jul-15 02:30N 40°00' W 075°04'0 0.0
2018-Jul-15 02:00N 40°00' W 075°04'0 0.0
2018-Jul-15 01:30N 40°00' W 075°04'0 0.0
2018-Jul-15 01:00N 40°00' W 075°04'0 0.0
2018-Jul-15 00:30N 40°00' W 075°04'0 0.0
2018-Jul-15 00:00N 40°00' W 075°04'0 0.0
2018-Jul-14 23:30N 40°00' W 075°04'0 0.0
2018-Jul-14 23:00N 40°00' W 075°04'0 0.0
2018-Jul-14 22:30N 40°00' W 075°04'0 0.0
2018-Jul-14 22:00N 40°00' W 075°04'0 0.0
2018-Jul-14 21:30N 40°00' W 075°04'0 0.0
2018-Jul-14 21:00N 40°00' W 075°04'0 0.0
2018-Jul-14 20:30N 40°00' W 075°04'0 0.0
2018-Jul-14 20:00N 40°00' W 075°04'0 0.0
2018-Jul-14 19:30N 40°00' W 075°04'0 0.0
2018-Jul-14 19:00N 40°00' W 075°04'0 0.0
2018-Jul-14 18:30N 40°00' W 075°04'0 0.0
2018-Jul-14 18:00N 40°00' W 075°04'0 0.0
2018-Jul-14 17:30N 40°00' W 075°04'0 0.0
2018-Jul-14 17:00N 40°00' W 075°04'0 0.0
2018-Jul-14 16:27N 40°00' W 075°04'0 0.0
2018-Jul-14 16:00N 40°00' W 075°04'0 0.0
2018-Jul-14 15:30N 40°00' W 075°04'0 0.0
2018-Jul-14 15:00N 40°00' W 075°04'0 0.0
2018-Jul-14 14:00N 40°00' W 075°04'0 0.0
2018-Jul-14 13:30N 40°00' W 075°04'0 0.0
2018-Jul-14 13:00N 40°00' W 075°04'  
2018-Jul-10 12:16N 40°00' W 075°04'0 0.0
2018-Jul-10 11:58N 40°00' W 075°04'0 0.0
2018-Jul-10 11:28N 40°00' W 075°04'  
Track history (hours):
 
Tides and Currents Weather Stations Pressure Air Temp Water Temp Dewpoint Dewpoint Depression Visibility Wind Speed Wind Dir Waves Ship Positions

RoSS Sea

Owner: Kirby Inland Marine, LP, Houston, TX. More information available from US FCC via Universal Licensing System and Coast Guard Vessel Documentation Center.

Last reported at 2018-Jul-20 11:00 UTC. Time now 2018-Jul-21 19:35 UTC.
Position N 38°13' W 076°18'.

Length 30 m; draft 3.8 m.

Type: Tow > 200 m length. MMSI: 367334360.

Date/timePositionNaut miles runAvg speedWind from/ knotsBaromVisibWave heightAir tempDewpointWater temp
2018-Jul-20 11:00N 38°13' W 076°18'4 7.4
2018-Jul-20 10:31N 38°17' W 076°19'2 3.8
2018-Jul-20 09:55N 38°19' W 076°20'6 6.9
2018-Jul-20 09:04N 38°25' W 076°22'3 9.2
2018-Jul-20 08:46N 38°27' W 076°23'2 9.2
2018-Jul-20 08:30N 38°29' W 076°25'18 8.7
2018-Jul-20 06:26N 38°47' W 076°27'4 8.3
2018-Jul-20 06:00N 38°51' W 076°26'4 8.1
2018-Jul-20 05:31N 38°55' W 076°24'5 7.9
2018-Jul-20 04:56N 38°59' W 076°23'8 7.6
2018-Jul-20 03:54N 39°06' W 076°19'7 7.6
2018-Jul-20 02:58N 39°13' W 076°15'11 8.3
2018-Jul-20 01:41N 39°22' W 076°08'2 9.3
2018-Jul-20 01:30N 39°23' W 076°06'5 9.3
2018-Jul-20 01:00N 39°25' W 076°01'5 9.7
2018-Jul-20 00:30N 39°29' W 075°57'5 9.5
2018-Jul-20 00:00N 39°32' W 075°52'4 8.2
2018-Jul-19 23:30N 39°32' W 075°47'5 9.4
2018-Jul-19 23:00N 39°33' W 075°41'5 9.3
2018-Jul-19 22:30N 39°34' W 075°35'3 5.4
2018-Jul-19 22:00N 39°36' W 075°34'3 6.3
2018-Jul-19 21:30N 39°39' W 075°33'3 6.8
2018-Jul-19 21:00N 39°42' W 075°31'3 6.7
2018-Jul-19 20:30N 39°45' W 075°29'3 6.5
2018-Jul-19 20:00N 39°48' W 075°26'4 7.1
2018-Jul-19 19:30N 39°50' W 075°22'4 7.1
2018-Jul-19 19:00N 39°51' W 075°18'4 8.5
2018-Jul-19 18:29N 39°52' W 075°13'4 8.3
2018-Jul-19 17:57N 39°55' W 075°08'4 8.4
2018-Jul-19 17:30N 39°58' W 075°06'3 2.5
2018-Jul-19 16:25N 40°00' W 075°04'0 0.0
2018-Jul-19 16:00N 40°00' W 075°04'0 0.0
2018-Jul-19 15:30N 40°00' W 075°04'0 0.0
2018-Jul-19 01:00N 40°00' W 075°04'0 0.0
2018-Jul-19 00:30N 40°00' W 075°04'1 1.6
2018-Jul-19 00:00N 39°59' W 075°04'2 4.8
2018-Jul-18 23:30N 39°58' W 075°07'2 4.1
2018-Jul-18 23:01N 39°57' W 075°08'3 6.8
2018-Jul-18 22:30N 39°53' W 075°08'3 7.0
2018-Jul-18 22:00N 39°52' W 075°13'3 5.9
2018-Jul-18 21:30N 39°51' W 075°16'2 4.4
2018-Jul-18 21:01N 39°51' W 075°19'4 7.6
2018-Jul-18 20:30N 39°49' W 075°23'4 8.4
2018-Jul-18 20:00N 39°47' W 075°28'4 8.5
2018-Jul-18 19:30N 39°43' W 075°30'4 8.5
2018-Jul-18 19:00N 39°39' W 075°33'4 7.4
2018-Jul-18 18:30N 39°35' W 075°34'3 6.3
2018-Jul-18 18:00N 39°33' W 075°37'5 9.4
2018-Jul-18 17:30N 39°33' W 075°43'5 9.2
2018-Jul-18 17:00N 39°32' W 075°49'4 7.6
2018-Jul-18 16:30N 39°31' W 075°53'510.3
2018-Jul-18 16:00N 39°28' W 075°59'5 9.6
2018-Jul-18 15:30N 39°24' W 076°03'510.0
2018-Jul-18 14:59N 39°22' W 076°09'24 8.9
2018-Jul-18 12:16N 38°60' W 076°23'3 9.3
2018-Jul-18 12:00N 38°58' W 076°24'4 8.3
2018-Jul-18 11:30N 38°54' W 076°24'  
2018-Jul-15 14:47N 39°05' W 075°11'2 5.8
2018-Jul-15 14:29N 39°07' W 075°13'3 5.7
2018-Jul-15 13:59N 39°09' W 075°15'3 5.6
2018-Jul-15 13:30N 39°11' W 075°17'3 6.1
2018-Jul-15 13:00N 39°14' W 075°18'4 7.6
2018-Jul-15 12:30N 39°17' W 075°21'4 8.5
2018-Jul-15 12:00N 39°20' W 075°25'5 9.3
2018-Jul-15 11:30N 39°23' W 075°29'5 9.6
2018-Jul-15 11:00N 39°27' W 075°33'5 9.1
2018-Jul-15 10:30N 39°32' W 075°33'5 9.2
2018-Jul-15 10:00N 39°36' W 075°34'4 8.1
2018-Jul-15 09:30N 39°40' W 075°32'4 8.8
2018-Jul-15 09:00N 39°44' W 075°30'4 8.0
2018-Jul-15 08:30N 39°47' W 075°27'4 7.2
2018-Jul-15 08:00N 39°49' W 075°23'3 6.2
2018-Jul-15 07:30N 39°51' W 075°20'3 5.7
2018-Jul-15 07:00N 39°51' W 075°16'3 5.5
2018-Jul-15 06:30N 39°52' W 075°13'2 4.9
2018-Jul-15 06:01N 39°53' W 075°10'2 4.4
2018-Jul-15 05:30N 39°54' W 075°08'2 4.9
2018-Jul-15 05:00N 39°57' W 075°08'2 4.5
2018-Jul-15 04:30N 39°58' W 075°06'2 4.7
2018-Jul-15 04:00N 39°60' W 075°04'0 0.5
2018-Jul-15 03:30N 39°60' W 075°04'0 0.1
2018-Jul-15 03:00N 40°00' W 075°04'0 0.0
2018-Jul-15 02:30N 40°00' W 075°04'0 0.0
2018-Jul-15 02:00N 40°00' W 075°04'0 0.0
2018-Jul-15 01:30N 40°00' W 075°04'0 0.0
2018-Jul-15 01:00N 40°00' W 075°04'0 0.0
2018-Jul-15 00:30N 40°00' W 075°04'0 0.0
2018-Jul-15 00:00N 40°00' W 075°04'0 0.0
2018-Jul-14 23:30N 40°00' W 075°04'0 0.0
2018-Jul-14 23:00N 40°00' W 075°04'0 0.0
2018-Jul-14 22:30N 40°00' W 075°04'0 0.0
2018-Jul-14 22:00N 40°00' W 075°04'0 0.0
2018-Jul-14 21:30N 40°00' W 075°04'0 0.0
2018-Jul-14 21:00N 40°00' W 075°04'0 0.0
2018-Jul-14 20:30N 40°00' W 075°04'0 0.0
2018-Jul-14 20:00N 40°00' W 075°04'0 0.0
2018-Jul-14 19:30N 40°00' W 075°04'0 0.0
2018-Jul-14 19:00N 40°00' W 075°04'0 0.0
2018-Jul-14 18:30N 40°00' W 075°04'0 0.0
2018-Jul-14 18:00N 40°00' W 075°04'0 0.0
2018-Jul-14 17:30N 40°00' W 075°04'0 0.0
2018-Jul-14 17:00N 40°00' W 075°04'0 0.0
2018-Jul-14 16:27N 40°00' W 075°04'0 0.0
2018-Jul-14 16:00N 40°00' W 075°04'0 0.0
2018-Jul-14 15:30N 40°00' W 075°04'0 0.0
2018-Jul-14 15:00N 40°00' W 075°04'0 0.0
2018-Jul-14 14:00N 40°00' W 075°04'0 0.0
2018-Jul-14 13:30N 40°00' W 075°04'0 0.0
2018-Jul-14 13:00N 40°00' W 075°04'  
2018-Jul-10 12:16N 40°00' W 075°04'0 0.0
2018-Jul-10 11:58N 40°00' W 075°04'0 0.0
2018-Jul-10 11:28N 40°00' W 075°04'  

Dump ship's entire track history